Time;durP1;ratioP1;P1;durP2;ratioP2;P2;SDS_P1;SDS_P2;PMS_P1;PMS_P2;Temp;Humidity;BMP_temperature;BMP_pressure;BME280_temperature;BME280_humidity;BME280_pressure;Samples;Min_cycle;Max_cycle;Signal;HPM_P1;HPM_P2
2022/05/30 00:01:06;;;;;;;3.27;3.00;;;8.20;99.90;;;;;;5047694;28;20193;-58
2022/05/30 00:03:35;;;;;;;3.27;2.80;;;8.20;99.90;;;;;;5045430;28;20196;-58
2022/05/30 00:06:07;;;;;;;3.17;2.87;;;8.20;99.90;;;;;;5040174;28;20663;-58
2022/05/30 00:08:37;;;;;;;4.30;2.97;;;8.20;99.90;;;;;;5047907;28;20619;-58
2022/05/30 00:11:07;;;;;;;6.97;3.20;;;8.20;99.90;;;;;;5039754;28;20855;-58
2022/05/30 00:13:37;;;;;;;3.87;2.80;;;8.10;99.90;;;;;;5076257;28;20735;-59
2022/05/30 00:16:09;;;;;;;4.03;3.13;;;8.10;99.90;;;;;;5041951;28;20240;-58
2022/05/30 00:18:38;;;;;;;5.37;2.80;;;8.10;99.90;;;;;;5039090;28;20327;-58
2022/05/30 00:21:07;;;;;;;5.27;3.47;;;8.00;99.90;;;;;;5040340;28;20205;-59
2022/05/30 00:23:37;;;;;;;3.90;3.30;;;8.00;99.90;;;;;;5041828;28;20615;-58
2022/05/30 00:26:06;;;;;;;4.63;3.20;;;7.90;99.90;;;;;;5043121;28;20203;-59
2022/05/30 00:28:36;;;;;;;4.83;3.20;;;7.90;99.90;;;;;;5040865;28;20209;-59
2022/05/30 00:31:08;;;;;;;4.17;2.80;;;7.90;99.90;;;;;;5040117;28;20193;-58
2022/05/30 00:33:37;;;;;;;6.93;3.30;;;7.90;99.90;;;;;;5057519;28;20209;-59
2022/05/30 00:36:05;;;;;;;6.23;2.97;;;7.90;99.90;;;;;;5046491;28;20250;-59
2022/05/30 00:38:34;;;;;;;4.23;3.30;;;7.90;99.90;;;;;;5045300;28;20227;-59
2022/05/30 00:41:04;;;;;;;5.57;3.20;;;7.80;99.90;;;;;;5038311;28;20319;-59
2022/05/30 00:43:34;;;;;;;4.00;3.40;;;7.80;99.90;;;;;;5055177;28;20201;-59
2022/05/30 00:46:06;;;;;;;3.33;3.10;;;7.70;99.90;;;;;;5039549;28;20228;-58
2022/05/30 00:48:46;;;;;;;5.73;3.00;;;7.70;99.90;;;;;;5039308;28;20675;-59
2022/05/30 00:51:17;;;;;;;3.57;3.33;;;7.70;99.90;;;;;;5040028;28;20190;-59
2022/05/30 00:53:49;;;;;;;8.60;3.60;;;7.70;99.90;;;;;;5070224;28;20714;-59
2022/05/30 00:56:19;;;;;;;10.93;3.60;;;7.60;99.90;;;;;;5038716;28;20213;-59
2022/05/30 00:58:50;;;;;;;3.63;3.17;;;7.60;99.90;;;;;;5038580;28;20198;-58
2022/05/30 01:01:22;;;;;;;4.77;3.27;;;7.60;99.90;;;;;;5035330;28;20192;-58
2022/05/30 01:06:43;;;;;;;3.70;3.40;;;7.40;99.90;;;;;;5040698;28;20193;-58
2022/05/30 01:09:13;;;;;;;3.33;3.00;;;7.30;99.90;;;;;;5040681;28;20205;-59
2022/05/30 01:11:52;;;;;;;3.90;3.60;;;7.30;99.90;;;;;;5038624;28;20209;-58
2022/05/30 01:14:23;;;;;;;8.33;3.80;;;7.30;99.90;;;;;;5041308;28;20193;-58
2022/05/30 01:16:51;;;;;;;3.83;3.50;;;7.30;99.90;;;;;;5040462;28;20216;-58
2022/05/30 01:19:49;;;;;;;5.43;3.40;;;7.40;99.90;;;;;;5043550;28;21708;-58
2022/05/30 01:22:42;;;;;;;5.13;3.53;;;7.30;99.90;;;;;;5046418;28;20205;-58
2022/05/30 01:25:18;;;;;;;4.47;3.77;;;7.30;99.90;;;;;;5038449;28;20189;-58
2022/05/30 01:27:57;;;;;;;5.37;3.73;;;7.30;99.90;;;;;;5043413;28;20206;-58
2022/05/30 01:30:27;;;;;;;4.47;3.90;;;7.20;99.90;;;;;;5046339;28;20195;-58
2022/05/30 01:32:58;;;;;;;4.40;3.50;;;7.20;99.90;;;;;;5037735;28;20200;-58
2022/05/30 01:35:28;;;;;;;3.87;3.57;;;7.20;99.90;;;;;;5046121;28;20229;-59
2022/05/30 01:37:57;;;;;;;7.63;4.30;;;7.20;99.90;;;;;;5045751;28;20220;-58
2022/05/30 01:40:26;;;;;;;13.43;4.07;;;7.20;99.90;;;;;;5042066;28;20204;-59
2022/05/30 01:42:55;;;;;;;8.33;3.90;;;7.20;99.90;;;;;;5036528;28;20200;-58
2022/05/30 01:45:24;;;;;;;4.30;3.97;;;7.10;99.90;;;;;;5039325;28;20203;-58
2022/05/30 01:47:54;;;;;;;7.23;4.30;;;7.10;99.90;;;;;;5039266;28;20219;-58
2022/05/30 01:50:25;;;;;;;8.20;4.53;;;7.10;99.90;;;;;;5039211;28;20810;-58
2022/05/30 01:52:57;;;;;;;5.30;4.30;;;7.00;99.90;;;;;;5034975;28;20473;-58
2022/05/30 01:55:25;;;;;;;4.93;4.10;;;7.00;99.90;;;;;;5068888;28;22071;-58
2022/05/30 01:57:54;;;;;;;7.57;4.33;;;7.00;99.90;;;;;;5040490;28;20209;-59
2022/05/30 02:00:23;;;;;;;7.73;4.50;;;6.90;99.90;;;;;;5046834;28;20797;-58
2022/05/30 02:02:51;;;;;;;6.50;4.73;;;6.90;99.90;;;;;;5043798;28;20199;-58
2022/05/30 02:05:21;;;;;;;5.33;4.63;;;6.90;99.90;;;;;;5038798;28;20727;-58
2022/05/30 02:07:49;;;;;;;7.67;4.93;;;6.90;99.90;;;;;;5039354;28;20231;-58
2022/05/30 02:10:18;;;;;;;6.50;4.70;;;6.90;99.90;;;;;;5046625;28;20197;-58
2022/05/30 02:12:46;;;;;;;7.90;4.80;;;6.90;99.90;;;;;;5038961;28;20283;-58
2022/05/30 02:15:19;;;;;;;8.90;4.97;;;6.90;99.90;;;;;;5039971;28;20199;-58
2022/05/30 02:17:46;;;;;;;6.73;5.37;;;6.90;99.90;;;;;;5038730;28;20220;-58
2022/05/30 02:20:16;;;;;;;9.70;5.40;;;6.80;99.90;;;;;;5037472;28;20201;-58
2022/05/30 02:22:46;;;;;;;8.83;4.83;;;6.70;99.90;;;;;;5037259;28;20291;-58
2022/05/30 02:25:15;;;;;;;7.17;5.23;;;6.70;99.90;;;;;;5037583;28;20684;-59
2022/05/30 02:27:44;;;;;;;5.63;5.13;;;6.70;99.90;;;;;;5042757;28;20189;-58
2022/05/30 02:30:13;;;;;;;7.30;5.13;;;6.70;99.90;;;;;;5036400;28;20217;-58
2022/05/30 02:32:41;;;;;;;5.40;4.90;;;6.70;99.90;;;;;;5036784;28;20223;-58
2022/05/30 02:37:57;;;;;;;7.60;5.00;;;6.60;99.90;;;;;;5036521;28;20209;-58
2022/05/30 02:40:25;;;;;;;8.60;5.30;;;6.50;99.90;;;;;;5039296;28;20196;-59
2022/05/30 02:42:54;;;;;;;7.83;5.47;;;6.50;99.90;;;;;;5038147;28;20189;-59
2022/05/30 02:45:22;;;;;;;5.33;4.80;;;6.50;99.90;;;;;;5039823;28;20220;-58
2022/05/30 02:47:51;;;;;;;5.83;4.73;;;6.50;99.90;;;;;;5040191;28;20248;-58
2022/05/30 02:50:19;;;;;;;7.30;4.80;;;6.50;99.90;;;;;;5038014;28;20202;-58
2022/05/30 02:52:50;;;;;;;5.93;5.23;;;6.50;99.90;;;;;;5039799;28;20203;-59
2022/05/30 02:55:20;;;;;;;8.17;5.17;;;6.50;99.90;;;;;;5039383;28;20200;-58
2022/05/30 02:57:50;;;;;;;8.93;5.17;;;6.50;99.90;;;;;;5037606;28;20228;-59
2022/05/30 03:00:19;;;;;;;5.17;4.77;;;6.60;99.90;;;;;;5038393;28;20564;-58
2022/05/30 03:02:47;;;;;;;6.23;4.90;;;6.60;99.90;;;;;;5036784;28;20280;-58
2022/05/30 03:05:17;;;;;;;5.17;4.77;;;6.50;99.90;;;;;;5039263;28;20648;-59
2022/05/30 03:07:46;;;;;;;8.33;4.90;;;6.50;99.90;;;;;;5043467;28;20233;-58
2022/05/30 03:10:15;;;;;;;5.17;4.73;;;6.40;99.90;;;;;;5056010;28;20204;-58
2022/05/30 03:12:44;;;;;;;6.67;4.80;;;6.40;99.90;;;;;;5040966;28;20207;-58
2022/05/30 03:15:13;;;;;;;6.67;4.77;;;6.30;99.90;;;;;;5043319;28;20237;-57
2022/05/30 03:17:41;;;;;;;5.93;4.43;;;6.30;99.90;;;;;;5041083;28;20212;-59
2022/05/30 03:20:10;;;;;;;9.07;5.00;;;6.20;99.90;;;;;;5042358;28;21190;-59
2022/05/30 03:22:39;;;;;;;6.73;4.80;;;6.20;99.90;;;;;;5045379;28;20211;-58
2022/05/30 03:25:08;;;;;;;7.17;5.23;;;6.20;99.90;;;;;;5044751;28;20283;-58
2022/05/30 03:27:37;;;;;;;5.17;4.73;;;6.20;99.90;;;;;;5045368;28;20232;-58
2022/05/30 03:30:09;;;;;;;5.87;4.60;;;6.20;99.90;;;;;;5043917;28;20195;-58
2022/05/30 03:32:38;;;;;;;8.77;5.13;;;6.20;99.90;;;;;;5043180;28;20557;-58
2022/05/30 03:35:07;;;;;;;7.37;4.97;;;6.20;99.90;;;;;;5046999;28;20271;-58
2022/05/30 03:37:38;;;;;;;7.00;4.93;;;6.30;99.90;;;;;;5045405;28;20209;-57
2022/05/30 03:40:09;;;;;;;10.40;4.93;;;6.30;99.90;;;;;;5071014;28;20225;-59
2022/05/30 03:42:38;;;;;;;6.20;4.57;;;6.30;99.90;;;;;;5040996;28;20684;-58
2022/05/30 03:45:09;;;;;;;6.27;5.13;;;6.40;99.90;;;;;;5078511;28;20292;-58
2022/05/30 03:47:38;;;;;;;6.90;4.73;;;6.40;99.90;;;;;;5043431;28;20290;-59
2022/05/30 03:50:10;;;;;;;6.27;5.30;;;6.40;99.90;;;;;;5040582;28;20191;-58
2022/05/30 03:52:38;;;;;;;8.77;5.27;;;6.40;99.90;;;;;;5024643;28;20189;-58
2022/05/30 03:55:11;;;;;;;6.07;4.93;;;6.40;99.90;;;;;;5050290;28;20207;-59
2022/05/30 03:57:40;;;;;;;6.33;5.30;;;6.50;99.90;;;;;;5044578;28;20217;-58
2022/05/30 04:00:13;;;;;;;10.43;5.67;;;6.50;99.90;;;;;;5039787;28;20197;-58
2022/05/30 04:03:13;;;;;;;6.50;5.77;;;6.60;99.90;;;;;;5046610;28;20200;-59
2022/05/30 04:05:41;;;;;;;7.50;6.07;;;6.70;99.90;;;;;;5048359;28;20563;-58
2022/05/30 04:08:10;;;;;;;12.43;6.20;;;6.80;99.90;;;;;;5046389;28;20240;-58
2022/05/30 04:10:38;;;;;;;9.57;6.70;;;6.90;99.90;;;;;;5045817;28;20196;-59
2022/05/30 04:13:09;;;;;;;10.60;5.80;;;6.90;99.90;;;;;;5041866;28;20201;-58
2022/05/30 04:15:39;;;;;;;12.73;6.40;;;7.00;99.90;;;;;;5038600;28;20836;-59
2022/05/30 04:18:08;;;;;;;8.13;5.73;;;7.10;99.90;;;;;;5043944;28;20308;-58
2022/05/30 04:20:37;;;;;;;7.93;6.07;;;7.10;99.90;;;;;;5041464;28;20254;-58
2022/05/30 04:23:05;;;;;;;10.17;6.03;;;7.20;99.90;;;;;;5056083;28;20223;-58
2022/05/30 04:25:34;;;;;;;7.67;5.80;;;7.20;99.90;;;;;;5025802;28;20204;-58
2022/05/30 04:28:02;;;;;;;10.73;6.37;;;7.30;99.90;;;;;;5042302;28;20201;-58
2022/05/30 04:30:31;;;;;;;7.63;6.30;;;7.30;99.90;;;;;;5038528;28;20217;-58
2022/05/30 04:33:01;;;;;;;9.97;5.93;;;7.40;99.90;;;;;;5037893;28;20227;-58
2022/05/30 04:35:29;;;;;;;11.13;6.37;;;7.40;99.90;;;;;;5041634;28;20745;-59
2022/05/30 04:37:57;;;;;;;11.23;6.17;;;7.40;99.90;;;;;;5047305;28;20284;-58
2022/05/30 04:40:26;;;;;;;8.87;6.50;;;7.50;99.90;;;;;;5065946;28;20256;-57
2022/05/30 04:42:57;;;;;;;12.20;6.53;;;7.50;99.90;;;;;;5040911;28;20205;-58
2022/05/30 04:45:25;;;;;;;8.37;5.60;;;7.60;99.90;;;;;;5046592;28;20209;-58
2022/05/30 04:47:54;;;;;;;13.00;6.03;;;7.70;99.90;;;;;;5044321;28;20270;-58
2022/05/30 04:50:23;;;;;;;12.63;6.40;;;7.70;99.90;;;;;;5038858;28;20224;-58
2022/05/30 04:52:54;;;;;;;13.63;6.60;;;7.80;99.90;;;;;;5040558;28;20207;-58
2022/05/30 04:55:23;;;;;;;10.50;7.17;;;7.90;99.90;;;;;;5045557;28;20193;-58
2022/05/30 04:57:52;;;;;;;11.73;7.00;;;8.00;99.90;;;;;;5082169;28;20216;-58
2022/05/30 05:00:24;;;;;;;11.83;6.90;;;8.00;99.90;;;;;;5047053;28;20191;-58
2022/05/30 05:02:53;;;;;;;12.67;7.73;;;8.10;99.90;;;;;;5038564;28;20192;-58
2022/05/30 05:05:23;;;;;;;12.57;7.17;;;8.20;99.90;;;;;;5044417;28;20624;-58
2022/05/30 05:08:00;;;;;;;11.00;7.27;;;8.30;99.90;;;;;;5042588;28;20562;-58
2022/05/30 05:10:36;;;;;;;10.43;6.93;;;8.30;99.90;;;;;;5048299;28;20197;-58
2022/05/30 05:13:04;;;;;;;10.13;6.87;;;8.40;99.90;;;;;;5069945;28;20189;-58
2022/05/30 05:15:35;;;;;;;12.73;7.10;;;8.40;99.90;;;;;;5038973;28;20205;-59
2022/05/30 05:18:03;;;;;;;18.37;8.07;;;8.50;99.90;;;;;;5046229;28;20541;-58
2022/05/30 05:20:38;;;;;;;12.87;7.50;;;8.60;99.90;;;;;;5038835;28;20280;-58
2022/05/30 05:23:06;;;;;;;11.90;6.93;;;8.70;99.90;;;;;;5038545;28;20200;-58
2022/05/30 05:25:37;;;;;;;10.30;7.30;;;8.90;99.90;;;;;;5047373;28;20659;-58
2022/05/30 05:28:06;;;;;;;12.53;7.43;;;8.90;99.90;;;;;;5038335;28;20184;-58
2022/05/30 05:30:35;;;;;;;13.30;7.10;;;9.00;99.90;;;;;;5038841;28;20284;-58
2022/05/30 05:33:03;;;;;;;13.43;6.97;;;9.10;99.90;;;;;;5040028;28;20227;-58
2022/05/30 05:35:32;;;;;;;10.83;7.77;;;9.30;99.90;;;;;;5038650;28;20266;-58
2022/05/30 05:38:03;;;;;;;8.27;6.67;;;9.40;99.90;;;;;;5041600;28;20246;-58
2022/05/30 05:40:31;;;;;;;11.23;7.23;;;9.50;99.90;;;;;;5042092;28;20221;-58
2022/05/30 05:42:59;;;;;;;12.07;7.03;;;9.60;99.90;;;;;;5036294;28;20197;-58
2022/05/30 05:45:29;;;;;;;9.03;6.07;;;9.60;99.90;;;;;;5073884;28;20224;-59
2022/05/30 05:47:57;;;;;;;10.40;6.90;;;9.70;99.90;;;;;;5036589;28;20228;-59
2022/05/30 05:50:26;;;;;;;11.37;6.60;;;9.80;99.90;;;;;;5040064;28;20254;-58
2022/05/30 05:52:55;;;;;;;10.13;7.10;;;9.90;99.90;;;;;;5039813;28;20790;-58
2022/05/30 05:55:24;;;;;;;9.40;6.97;;;10.00;99.90;;;;;;5035693;28;20193;-58
2022/05/30 05:57:53;;;;;;;12.03;7.30;;;10.10;99.90;;;;;;5039793;28;20197;-59
2022/05/30 06:00:22;;;;;;;15.67;7.07;;;10.30;99.90;;;;;;5038097;28;20313;-59
2022/05/30 06:02:50;;;;;;;12.43;7.03;;;10.40;99.90;;;;;;5037687;28;20561;-59
2022/05/30 06:05:19;;;;;;;14.93;7.37;;;10.40;99.90;;;;;;5027110;28;20352;-58
2022/05/30 06:07:48;;;;;;;14.30;6.73;;;10.60;99.90;;;;;;5036682;28;20593;-59
2022/05/30 06:10:16;;;;;;;15.07;7.20;;;10.70;99.90;;;;;;5038003;28;20250;-59
2022/05/30 06:12:47;;;;;;;18.60;6.73;;;10.90;99.90;;;;;;5043729;28;20284;-59
2022/05/30 06:15:17;;;;;;;11.63;6.70;;;11.00;99.90;;;;;;5036521;28;20209;-59
2022/05/30 06:17:46;;;;;;;13.93;6.23;;;11.10;99.90;;;;;;5043304;28;20720;-59
2022/05/30 06:20:17;;;;;;;8.00;6.23;;;11.30;99.90;;;;;;5046532;28;20213;-58
2022/05/30 06:22:45;;;;;;;10.47;5.20;;;11.40;99.90;;;;;;5045737;28;20283;-59
2022/05/30 06:25:14;;;;;;;8.10;5.90;;;11.50;99.90;;;;;;5046278;28;20197;-59
2022/05/30 06:27:43;;;;;;;10.10;4.90;;;11.60;99.90;;;;;;5043411;28;20251;-59
2022/05/30 06:30:14;;;;;;;12.67;4.80;;;11.80;99.90;;;;;;5047564;28;20224;-59
2022/05/30 06:32:43;;;;;;;5.90;3.80;;;11.80;99.90;;;;;;5050101;28;20201;-59
2022/05/30 06:35:11;;;;;;;10.70;4.40;;;11.90;99.90;;;;;;5046885;28;20328;-59
2022/05/30 06:37:39;;;;;;;7.63;3.97;;;11.90;99.90;;;;;;5036756;28;20224;-59
2022/05/30 06:40:09;;;;;;;9.30;4.40;;;12.00;99.90;;;;;;5060526;28;20754;-59
2022/05/30 06:42:38;;;;;;;15.00;3.70;;;12.10;99.90;;;;;;5050016;28;20193;-59
2022/05/30 06:45:07;;;;;;;5.83;3.37;;;12.10;99.90;;;;;;5042614;28;20197;-58
2022/05/30 06:47:37;;;;;;;5.60;3.40;;;12.10;99.90;;;;;;5036621;28;20203;-59
2022/05/30 06:50:06;;;;;;;13.43;3.33;;;12.20;99.90;;;;;;5029067;28;20315;-59
2022/05/30 06:52:36;;;;;;;11.03;4.10;;;12.20;99.90;;;;;;5036651;28;21855;-59
2022/05/30 06:55:06;;;;;;;13.20;3.87;;;12.30;99.90;;;;;;5037217;28;20201;-59
2022/05/30 07:00:22;;;;;;;7.73;3.40;;;12.60;99.90;;;;;;5018871;28;20226;-58
2022/05/30 07:02:52;;;;;;;7.17;3.23;;;12.70;99.90;;;;;;5044110;28;20289;-59
2022/05/30 07:05:21;;;;;;;10.90;3.77;;;12.80;99.90;;;;;;5039466;28;20197;-58
2022/05/30 07:07:51;;;;;;;7.17;3.10;;;12.80;99.90;;;;;;5040139;28;20223;-59
2022/05/30 07:10:19;;;;;;;9.70;4.70;;;12.80;99.90;;;;;;5040199;28;20986;-59
2022/05/30 07:12:48;;;;;;;11.77;4.33;;;12.80;99.90;;;;;;5038000;28;20564;-59
2022/05/30 07:15:16;;;;;;;8.63;3.83;;;12.70;99.90;;;;;;5040334;28;20212;-59
2022/05/30 07:17:52;;;;;;;9.80;3.50;;;12.60;99.90;;;;;;5052299;28;20188;-59
2022/05/30 07:20:21;;;;;;;6.57;3.00;;;12.60;99.90;;;;;;5039967;28;20209;-59
2022/05/30 07:22:49;;;;;;;15.20;3.90;;;12.70;99.90;;;;;;5043676;28;20208;-58
2022/05/30 07:25:18;;;;;;;7.40;3.10;;;12.60;99.90;;;;;;5046126;28;20200;-58
2022/05/30 07:27:46;;;;;;;10.40;3.87;;;12.70;99.90;;;;;;5040361;28;20201;-58
2022/05/30 07:30:16;;;;;;;7.00;2.87;;;12.90;99.90;;;;;;5040277;28;20201;-59
2022/05/30 07:32:44;;;;;;;8.23;2.90;;;13.00;99.90;;;;;;5040854;28;20284;-59
2022/05/30 07:35:14;;;;;;;11.27;3.07;;;13.10;99.90;;;;;;5037281;28;20220;-59
2022/05/30 07:37:43;;;;;;;9.97;3.17;;;13.20;99.90;;;;;;5038683;28;20202;-59
2022/05/30 07:40:12;;;;;;;8.53;3.37;;;13.20;99.90;;;;;;5039017;28;20229;-59
2022/05/30 07:42:42;;;;;;;8.63;2.97;;;13.30;99.90;;;;;;5038400;28;20197;-59
2022/05/30 07:45:12;;;;;;;8.20;3.13;;;13.40;99.90;;;;;;5039922;28;20191;-59
2022/05/30 07:47:40;;;;;;;6.47;2.93;;;13.40;99.90;;;;;;5038753;28;20217;-59
2022/05/30 07:50:10;;;;;;;7.43;3.13;;;13.60;99.90;;;;;;5041619;28;20277;-59
2022/05/30 07:52:40;;;;;;;9.97;3.40;;;13.70;99.90;;;;;;5043896;28;20272;-63
2022/05/30 07:55:09;;;;;;;7.13;2.53;;;14.10;99.90;;;;;;5046877;28;20285;-63
2022/05/30 07:57:55;;;;;;;4.60;2.30;;;14.40;99.90;;;;;;5049291;28;20270;-62
2022/05/30 08:00:25;;;;;;;5.83;2.00;;;15.20;99.90;;;;;;5050541;28;20599;-62
2022/05/30 08:02:54;;;;;;;1.70;1.60;;;15.90;99.90;;;;;;5049616;28;20288;-62
2022/05/30 08:05:23;;;;;;;5.23;1.77;;;16.10;99.90;;;;;;5044762;28;20279;-62
2022/05/30 08:07:53;;;;;;;5.37;2.67;;;16.00;99.90;;;;;;5047569;28;20291;-62
2022/05/30 08:10:26;;;;;;;2.60;1.80;;;15.80;99.90;;;;;;5047401;28;20939;-62
2022/05/30 08:12:55;;;;;;;2.40;1.60;;;15.60;99.90;;;;;;5049255;28;20239;-62
2022/05/30 08:15:23;;;;;;;3.23;2.10;;;16.10;99.90;;;;;;5061343;28;20220;-62
2022/05/30 08:17:54;;;;;;;3.23;2.17;;;15.70;99.90;;;;;;5050775;28;20636;-62
2022/05/30 08:20:23;;;;;;;2.37;1.73;;;15.40;99.90;;;;;;5044423;28;20849;-62
2022/05/30 08:22:56;;;;;;;5.93;2.17;;;15.30;99.90;;;;;;5045824;28;20797;-62
2022/05/30 08:25:24;;;;;;;4.70;1.83;;;15.40;99.90;;;;;;5049405;28;20223;-62
2022/05/30 08:27:53;;;;;;;3.90;2.00;;;15.50;99.90;;;;;;5045917;28;20200;-63
2022/05/30 08:30:21;;;;;;;3.37;1.57;;;15.30;99.90;;;;;;5046649;28;20710;-62
2022/05/30 08:32:50;;;;;;;7.03;1.80;;;15.30;99.90;;;;;;5080925;28;20228;-62
2022/05/30 08:35:22;;;;;;;8.07;1.70;;;15.20;99.90;;;;;;5043052;28;20236;-62
2022/05/30 08:37:51;;;;;;;4.37;1.80;;;15.00;99.90;;;;;;5050618;28;20560;-62
2022/05/30 08:43:15;;;;;;;2.73;1.80;;;14.90;99.90;;;;;;5048040;28;20216;-62
2022/05/30 08:45:47;;;;;;;4.43;2.33;;;14.80;99.90;;;;;;5047120;28;20697;-62
2022/05/30 08:48:22;;;;;;;4.03;2.00;;;14.70;99.90;;;;;;5049170;28;20281;-62
2022/05/30 08:50:59;;;;;;;5.77;1.97;;;14.80;99.90;;;;;;5047050;28;20198;-62
2022/05/30 08:53:59;;;;;;;2.30;1.87;;;14.80;99.90;;;;;;5046753;28;20201;-62
2022/05/30 08:56:34;;;;;;;2.97;1.60;;;14.70;99.90;;;;;;5040857;28;20220;-62
2022/05/30 08:59:31;;;;;;;4.33;2.03;;;14.80;99.90;;;;;;5028763;28;20632;-62
2022/05/30 09:02:11;;;;;;;3.10;1.90;;;14.80;99.90;;;;;;5041556;28;20639;-62
2022/05/30 09:04:44;;;;;;;3.47;1.63;;;14.80;99.90;;;;;;5049292;28;20208;-62
2022/05/30 09:07:16;;;;;;;4.00;2.40;;;14.80;99.90;;;;;;5046415;28;20224;-62
2022/05/30 09:09:50;;;;;;;3.97;1.90;;;14.90;99.90;;;;;;5053576;28;20228;-62
2022/05/30 09:12:28;;;;;;;3.07;1.90;;;15.00;99.90;;;;;;5047259;28;20212;-62
2022/05/30 09:15:01;;;;;;;2.80;1.73;;;15.00;99.90;;;;;;5043939;28;20220;-62
2022/05/30 09:17:36;;;;;;;3.07;1.87;;;15.00;99.90;;;;;;5038520;28;20657;-62
2022/05/30 09:20:07;;;;;;;6.27;2.60;;;15.00;99.90;;;;;;5047031;28;20665;-62
2022/05/30 09:22:38;;;;;;;4.90;2.10;;;15.00;99.90;;;;;;5045496;28;20800;-62
2022/05/30 09:27:59;;;;;;;6.27;2.40;;;14.90;99.90;;;;;;5047389;28;20209;-62
2022/05/30 09:30:37;;;;;;;4.00;2.10;;;14.90;99.90;;;;;;5044627;28;20687;-62
2022/05/30 09:33:14;;;;;;;8.53;2.30;;;14.80;99.90;;;;;;5047959;28;20761;-62
2022/05/30 09:35:43;;;;;;;5.80;2.50;;;14.90;99.90;;;;;;5041305;28;20290;-62
2022/05/30 09:38:20;;;;;;;4.27;2.60;;;14.90;99.90;;;;;;5042517;28;20220;-62
2022/05/30 09:41:11;;;;;;;6.80;2.30;;;15.00;99.90;;;;;;5043586;28;20221;-62
2022/05/30 09:43:46;;;;;;;10.80;2.77;;;15.00;99.90;;;;;;5040706;28;20195;-62
2022/05/30 09:46:23;;;;;;;3.47;2.30;;;15.10;99.90;;;;;;5046473;28;20194;-62
2022/05/30 09:49:08;;;;;;;4.00;2.20;;;15.20;99.90;;;;;;5076952;28;20687;-62
2022/05/30 09:51:42;;;;;;;5.90;2.73;;;15.30;99.90;;;;;;5045587;28;20201;-62
2022/05/30 09:54:13;;;;;;;4.87;2.20;;;15.50;99.90;;;;;;5045151;28;20196;-62
2022/05/30 09:56:44;;;;;;;6.13;2.20;;;15.60;99.90;;;;;;5044768;28;20274;-62
2022/05/30 09:59:34;;;;;;;4.20;2.23;;;15.70;99.90;;;;;;5045231;28;20596;-62
2022/05/30 10:02:03;;;;;;;2.40;2.20;;;15.70;99.90;;;;;;5062529;28;20267;-62
2022/05/30 10:04:42;;;;;;;4.97;2.10;;;15.70;99.90;;;;;;5039636;28;20247;-62
2022/05/30 10:07:14;;;;;;;5.00;2.07;;;16.00;99.90;;;;;;5076093;28;21138;-63
2022/05/30 10:09:52;;;;;;;3.67;2.20;;;16.20;99.90;;;;;;5043890;28;20627;-62
2022/05/30 10:12:36;;;;;;;11.87;2.07;;;16.50;99.90;;;;;;5043866;28;20193;-62
2022/05/30 10:15:23;;;;;;;8.17;2.30;;;16.80;99.90;;;;;;5042503;28;20695;-62
2022/05/30 10:17:52;;;;;;;4.50;2.40;;;17.30;99.90;;;;;;5074622;28;20392;-62
2022/05/30 10:20:31;;;;;;;9.93;2.57;;;17.90;99.90;;;;;;5044937;28;20318;-63
2022/05/30 10:28:59;;;;;;;4.80;2.27;;;17.90;99.90;;;;;;5002016;28;20205;-62
2022/05/30 10:31:37;;;;;;;4.57;2.57;;;17.90;99.90;;;;;;5070786;28;20188;-62
2022/05/30 10:34:51;;;;;;;6.10;2.30;;;18.00;99.90;;;;;;5045334;28;20219;-62
2022/05/30 10:37:32;;;;;;;6.87;2.57;;;17.80;99.90;;;;;;5046394;28;20250;-62
2022/05/30 10:40:17;;;;;;;5.47;2.93;;;17.50;99.90;;;;;;5042710;28;20192;-62
2022/05/30 10:42:51;;;;;;;4.80;2.53;;;17.40;99.90;;;;;;5046414;28;20308;-62
2022/05/30 10:45:28;;;;;;;4.23;2.80;;;17.40;99.90;;;;;;5045901;28;20203;-62
2022/05/30 10:48:02;;;;;;;5.00;2.73;;;17.60;99.90;;;;;;5043863;28;20200;-62
2022/05/30 10:50:43;;;;;;;5.23;2.83;;;17.60;99.90;;;;;;5046558;28;20258;-62
2022/05/30 10:53:30;;;;;;;5.27;3.03;;;17.40;99.90;;;;;;5079627;28;20284;-62
2022/05/30 10:56:02;;;;;;;9.53;3.03;;;17.10;99.90;;;;;;5046481;28;20199;-62
2022/05/30 10:58:35;;;;;;;7.23;2.80;;;17.00;99.90;;;;;;5044694;28;20221;-62
2022/05/30 11:01:08;;;;;;;7.77;3.57;;;16.80;99.90;;;;;;5042653;28;20192;-62
2022/05/30 11:03:44;;;;;;;8.93;3.83;;;16.70;99.90;;;;;;5042158;28;20224;-61
2022/05/30 11:06:34;;;;;;;4.17;3.57;;;16.50;99.90;;;;;;5075209;28;20213;-62
2022/05/30 11:09:12;;;;;;;6.30;3.67;;;16.40;99.90;;;;;;5046113;28;20860;-62
2022/05/30 11:11:46;;;;;;;6.90;3.70;;;16.20;99.90;;;;;;5040398;28;20470;-62
2022/05/30 11:14:22;;;;;;;7.03;3.90;;;16.10;99.90;;;;;;5042520;28;20721;-61
2022/05/30 11:16:55;;;;;;;5.77;3.40;;;16.00;99.90;;;;;;5037557;28;20215;-62
2022/05/30 11:19:33;;;;;;;4.97;3.30;;;16.00;99.90;;;;;;5047000;28;20193;-62
2022/05/30 11:22:07;;;;;;;6.03;3.40;;;16.00;99.90;;;;;;5060445;28;20212;-62
2022/05/30 11:24:37;;;;;;;4.60;2.73;;;16.10;99.90;;;;;;5045903;28;20200;-62
2022/05/30 11:27:20;;;;;;;6.23;2.90;;;16.10;99.90;;;;;;5051441;28;20218;-62
2022/05/30 11:30:22;;;;;;;8.83;3.50;;;16.20;99.90;;;;;;5049166;28;20209;-62
2022/05/30 11:33:13;;;;;;;5.77;2.70;;;16.30;99.90;;;;;;5049148;28;20188;-61
2022/05/30 11:35:54;;;;;;;6.60;2.70;;;16.30;99.90;;;;;;5052310;28;20628;-62
2022/05/30 11:38:38;;;;;;;5.20;2.80;;;16.50;99.90;;;;;;5046311;28;20192;-62
2022/05/30 11:41:22;;;;;;;6.33;3.13;;;16.40;99.90;;;;;;5050666;28;20580;-61
2022/05/30 11:44:06;;;;;;;4.83;2.73;;;16.40;99.90;;;;;;5045104;28;20268;-62
2022/05/30 11:46:42;;;;;;;5.10;2.77;;;16.30;99.90;;;;;;5051729;28;20195;-62
2022/05/30 11:49:20;;;;;;;4.83;3.07;;;16.20;99.90;;;;;;5059027;28;20192;-62
2022/05/30 11:52:04;;;;;;;8.80;3.23;;;16.20;99.90;;;;;;5039784;28;20199;-62
2022/05/30 11:54:54;;;;;;;5.43;3.30;;;16.40;99.90;;;;;;5051540;28;20669;-61
2022/05/30 11:57:42;;;;;;;4.17;3.10;;;16.40;99.90;;;;;;5048751;28;20209;-61
2022/05/30 12:00:33;;;;;;;6.53;3.40;;;16.50;99.90;;;;;;5052355;28;20192;-62
2022/05/30 12:03:48;;;;;;;5.50;3.50;;;16.60;99.90;;;;;;5053916;28;20220;-62
2022/05/30 12:06:39;;;;;;;9.53;3.43;;;16.70;99.90;;;;;;5040509;28;20666;-62
2022/05/30 12:09:25;;;;;;;9.90;3.40;;;17.00;99.90;;;;;;5054656;28;20204;-62
2022/05/30 12:12:27;;;;;;;5.83;3.13;;;17.20;99.90;;;;;;5043050;28;20643;-62
2022/05/30 12:15:22;;;;;;;8.37;3.87;;;17.50;99.90;;;;;;5042705;28;21733;-62
2022/05/30 12:24:28;;;;;;;7.20;3.23;;;17.70;99.90;;;;;;5048698;28;20790;-62
2022/05/30 12:27:08;;;;;;;3.80;3.50;;;17.30;99.90;;;;;;5056101;28;20200;-62
2022/05/30 12:29:51;;;;;;;4.70;2.97;;;16.90;99.90;;;;;;5057634;28;20254;-62
2022/05/30 12:32:42;;;;;;;5.27;3.50;;;16.90;99.90;;;;;;5054806;28;20217;-62
2022/05/30 12:35:32;;;;;;;5.87;3.17;;;16.70;99.90;;;;;;5050726;28;20746;-62
2022/05/30 12:38:22;;;;;;;5.37;3.50;;;16.80;99.90;;;;;;5054159;28;20825;-62
2022/05/30 12:41:19;;;;;;;4.60;3.37;;;16.90;99.90;;;;;;5047155;28;20218;-62
2022/05/30 12:43:47;;;;;;;3.90;3.03;;;17.20;99.90;;;;;;5044241;28;20220;-62
2022/05/30 12:46:22;;;;;;;9.50;3.63;;;17.30;99.90;;;;;;5049110;28;20202;-62
2022/05/30 12:49:14;;;;;;;4.77;2.87;;;17.30;99.90;;;;;;5047650;28;20597;-62
2022/05/30 12:52:04;;;;;;;4.83;3.40;;;17.40;99.90;;;;;;5046264;28;20199;-62
2022/05/30 12:54:46;;;;;;;7.53;3.40;;;17.50;99.90;;;;;;5045117;28;20191;-62
2022/05/30 12:57:43;;;;;;;6.80;3.40;;;17.60;99.90;;;;;;5067851;28;20238;-62
2022/05/30 13:00:44;;;;;;;6.93;3.60;;;17.70;99.90;;;;;;5059463;28;20200;-62
2022/05/30 13:03:44;;;;;;;5.40;3.57;;;17.60;99.90;;;;;;5059702;28;20237;-63
2022/05/30 13:06:22;;;;;;;3.97;3.37;;;17.60;99.90;;;;;;5048391;28;20207;-62
2022/05/30 13:09:00;;;;;;;5.23;3.10;;;17.60;99.90;;;;;;5046689;28;20209;-62
2022/05/30 13:12:14;;;;;;;4.40;3.17;;;17.70;99.90;;;;;;5046366;28;20891;-62
2022/05/30 13:15:11;;;;;;;4.67;2.90;;;17.70;99.90;;;;;;5048085;28;20197;-62
2022/05/30 13:17:50;;;;;;;5.27;3.10;;;17.80;99.90;;;;;;5049550;28;20270;-62
2022/05/30 13:20:21;;;;;;;5.27;3.07;;;17.80;99.90;;;;;;5045951;28;20207;-62
2022/05/30 13:22:54;;;;;;;9.10;3.10;;;17.90;99.90;;;;;;5048036;28;20591;-61
2022/05/30 13:25:27;;;;;;;4.00;3.03;;;18.10;99.90;;;;;;5058503;28;20197;-62
2022/05/30 13:27:56;;;;;;;5.87;3.50;;;18.20;99.90;;;;;;5045125;28;21882;-62
2022/05/30 13:30:30;;;;;;;8.70;3.23;;;18.00;99.90;;;;;;5047608;28;20207;-62
2022/05/30 13:32:58;;;;;;;4.73;3.00;;;17.80;99.90;;;;;;5045725;28;20193;-62
2022/05/30 13:35:32;;;;;;;5.63;3.17;;;18.10;99.90;;;;;;5081821;28;20260;-61
2022/05/30 13:38:03;;;;;;;8.13;3.40;;;18.30;99.90;;;;;;5045977;28;20715;-62
2022/05/30 13:40:33;;;;;;;5.43;3.23;;;18.70;99.90;;;;;;5046481;28;20275;-62
2022/05/30 13:43:03;;;;;;;3.30;3.10;;;18.90;99.90;;;;;;5050320;28;20209;-62
2022/05/30 13:45:54;;;;;;;3.43;3.07;;;19.00;99.90;;;;;;5049262;28;20197;-62
2022/05/30 13:48:22;;;;;;;5.63;3.00;;;19.00;99.90;;;;;;5052057;28;20675;-62
2022/05/30 13:50:58;;;;;;;5.97;2.70;;;18.70;99.90;;;;;;5048019;28;20196;-61